Time;durP1;ratioP1;P1;durP2;ratioP2;P2;SDS_P1;SDS_P2;PMS_P1;PMS_P2;Temp;Humidity;BMP_temperature;BMP_pressure;BME280_temperature;BME280_humidity;BME280_pressure;Samples;Min_cycle;Max_cycle;Signal;HPM_P1;HPM_P2
2021/03/16 00:00:28;;;;;;;7.07;3.15;;;;;;;3.61;92.77;152292.47;5023503;28;20485;-83
2021/03/16 00:03:22;;;;;;;5.17;3.13;;;;;;;3.59;93.03;152286.03;5017598;28;20199;-83
2021/03/16 00:06:07;;;;;;;7.53;3.50;;;;;;;3.61;95.49;152292.47;5019248;28;20434;-83
2021/03/16 00:08:43;;;;;;;4.30;2.60;;;;;;;3.57;94.81;152282.16;5017743;28;20446;-83
2021/03/16 00:11:18;;;;;;;8.03;2.77;;;;;;;3.59;93.21;152286.03;5031622;28;20488;-83
2021/03/16 00:13:53;;;;;;;6.03;2.00;;;;;;;3.58;94.66;152284.75;5021895;28;20433;-83
2021/03/16 00:16:29;;;;;;;4.00;2.90;;;;;;;3.59;96.63;152286.03;5035646;28;20471;-83
2021/03/16 00:19:04;;;;;;;3.40;2.83;;;;;;;3.59;98.12;152286.03;5024739;28;20446;-83
2021/03/16 00:21:40;;;;;;;4.20;2.50;;;;;;;3.60;96.16;152289.88;5034219;28;20437;-83
2021/03/16 00:24:16;;;;;;;4.53;2.97;;;;;;;3.58;95.62;152283.47;5036346;28;21092;-83
2021/03/16 00:26:51;;;;;;;3.45;2.90;;;;;;;3.57;93.00;152282.16;5036882;28;20432;-83
2021/03/16 00:29:26;;;;;;;3.50;2.00;;;;;;;3.56;94.42;152279.63;5036876;28;20655;-83
2021/03/16 00:32:01;;;;;;;4.10;3.17;;;;;;;3.53;96.22;152271.88;5001826;28;20466;-83
2021/03/16 00:34:36;;;;;;;4.47;2.50;;;;;;;3.53;95.32;152271.88;5001647;28;20473;-82
2021/03/16 00:37:12;;;;;;;5.00;3.00;;;;;;;3.58;96.61;152284.75;5016445;28;20515;-82
2021/03/16 00:39:48;;;;;;;3.77;2.43;;;;;;;3.56;95.37;152278.31;5019795;28;20798;-82
2021/03/16 00:42:23;;;;;;;4.97;2.90;;;;;;;3.48;95.09;152259.00;5036639;28;20431;-82
2021/03/16 00:44:58;;;;;;;3.40;2.20;;;;;;;3.48;95.49;152259.00;5036723;28;20440;-82
2021/03/16 00:47:35;;;;;;;5.17;2.90;;;;;;;3.49;96.56;152261.59;5035993;28;20458;-82
2021/03/16 00:50:12;;;;;;;4.00;2.30;;;;;;;3.51;95.53;152266.75;5017199;28;20457;-82
2021/03/16 00:52:49;;;;;;;3.47;2.20;;;;;;;3.53;94.58;152271.88;5002360;28;20472;-82
2021/03/16 00:55:24;;;;;;;4.57;2.90;;;;;;;3.53;96.34;152271.88;5008206;28;20452;-82
2021/03/16 00:58:00;;;;;;;4.50;2.80;;;;;;;3.49;94.54;152261.59;5016998;28;20434;-81
2021/03/16 01:00:35;;;;;;;3.90;2.97;;;;;;;3.47;96.17;152255.13;5024492;28;20474;-82
2021/03/16 01:03:11;;;;;;;3.23;2.67;;;;;;;3.47;93.89;152255.13;5017785;28;20792;-82
2021/03/16 01:05:47;;;;;;;4.13;2.40;;;;;;;3.47;91.95;152255.13;5010357;28;20443;-82
2021/03/16 01:08:23;;;;;;;4.05;2.53;;;;;;;3.45;91.56;152250.00;5009295;28;20428;-82
2021/03/16 01:11:01;;;;;;;3.40;2.47;;;;;;;3.42;90.40;152242.25;5011980;28;20676;-82
2021/03/16 01:13:36;;;;;;;4.20;2.50;;;;;;;3.42;92.97;152242.25;5001238;28;20200;-82
2021/03/16 01:16:12;;;;;;;4.77;2.70;;;;;;;3.41;93.04;152239.72;5029691;28;20456;-82
2021/03/16 01:18:47;;;;;;;4.20;2.00;;;;;;;3.41;90.06;152241.00;5036036;28;20440;-82
2021/03/16 01:21:22;;;;;;;4.23;2.60;;;;;;;3.40;89.40;152237.13;5020953;28;20432;-82
2021/03/16 01:23:59;;;;;;;5.40;2.17;;;;;;;3.42;93.13;152242.25;5020719;28;20452;-82
2021/03/16 01:26:34;;;;;;;4.43;2.17;;;;;;;3.32;89.09;152216.53;5022765;28;20856;-82
2021/03/16 01:29:11;;;;;;;4.20;2.53;;;;;;;3.33;92.91;152220.41;5032741;28;20270;-81
2021/03/16 01:31:46;;;;;;;2.33;1.80;;;;;;;3.32;92.91;152217.81;5018781;28;20467;-82
2021/03/16 01:34:21;;;;;;;2.67;1.97;;;;;;;3.32;93.39;152217.81;5030572;28;20448;-82
2021/03/16 01:36:57;;;;;;;3.67;2.43;;;;;;;3.33;92.76;152220.41;5020010;28;20543;-82
2021/03/16 01:39:33;;;;;;;4.97;2.17;;;;;;;3.32;92.59;152217.81;5035752;28;20459;-82
2021/03/16 01:42:08;;;;;;;5.10;2.60;;;;;;;3.33;94.31;152219.13;5016003;28;20429;-81
2021/03/16 01:44:44;;;;;;;5.07;2.50;;;;;;;3.27;93.57;152204.97;5005611;28;20471;-82
2021/03/16 01:47:21;;;;;;;3.43;2.40;;;;;;;3.29;93.63;152208.81;5001104;28;20444;-81
2021/03/16 01:49:57;;;;;;;3.80;2.73;;;;;;;3.33;94.45;152220.41;5018680;28;20884;-82
2021/03/16 01:52:32;;;;;;;2.83;2.40;;;;;;;3.27;94.45;152203.66;5020543;28;20463;-82
2021/03/16 01:55:10;;;;;;;5.63;2.53;;;;;;;3.27;95.02;152204.97;5035465;28;20438;-82
2021/03/16 01:57:47;;;;;;;4.43;2.70;;;;;;;3.28;94.15;152207.56;5032808;28;20452;-81
2021/03/16 02:00:42;;;;;;;5.63;2.90;;;;;;;3.28;95.30;152207.56;5024912;28;20451;-81
2021/03/16 02:03:36;;;;;;;5.17;2.70;;;;;;;3.33;94.94;152220.41;5035051;28;20547;-81
2021/03/16 02:06:38;;;;;;;6.13;3.40;;;;;;;3.22;94.01;152192.09;5017401;28;20444;-82
2021/03/16 02:09:36;;;;;;;2.97;2.50;;;;;;;3.26;95.54;152202.38;5016248;28;20455;-82
2021/03/16 02:12:34;;;;;;;5.97;3.50;;;;;;;3.22;96.29;152190.81;5019113;28;20546;-81
2021/03/16 02:15:34;;;;;;;4.00;2.70;;;;;;;3.22;96.46;152190.81;5027886;28;20854;-81
2021/03/16 02:18:34;;;;;;;4.33;2.63;;;;;;;3.22;93.68;152192.09;5017687;28;20451;-81
2021/03/16 02:21:29;;;;;;;6.77;2.87;;;;;;;3.23;96.51;152194.63;5039798;28;20911;-81
2021/03/16 02:24:40;;;;;;;4.63;3.20;;;;;;;3.24;94.08;152197.22;5019771;28;20895;-82
2021/03/16 02:27:45;;;;;;;5.70;2.80;;;;;;;3.25;96.62;152198.53;5033369;28;20450;-82
2021/03/16 02:30:42;;;;;;;3.23;2.63;;;;;;;3.23;95.43;152194.63;5035393;28;21011;-82
2021/03/16 02:33:38;;;;;;;4.37;2.50;;;;;;;3.18;96.76;152181.78;5015371;28;20448;-81
2021/03/16 02:36:33;;;;;;;5.83;2.80;;;;;;;3.14;97.57;152171.50;5031246;28;20442;-82
2021/03/16 02:39:27;;;;;;;7.03;2.83;;;;;;;3.19;96.71;152184.38;5035440;28;20451;-82
2021/03/16 02:42:23;;;;;;;3.53;3.00;;;;;;;3.17;96.33;152179.22;5032500;28;20446;-82
2021/03/16 02:45:17;;;;;;;5.00;2.90;;;;;;;3.13;96.07;152168.91;5021103;28;20455;-82
2021/03/16 02:48:12;;;;;;;4.20;2.60;;;;;;;3.14;97.79;152170.22;5053211;28;20428;-82
2021/03/16 02:51:07;;;;;;;9.37;2.83;;;;;;;3.15;96.16;152174.03;5036685;28;20928;-82
2021/03/16 02:54:02;;;;;;;7.20;3.20;;;;;;;3.19;96.95;152184.38;5015202;28;20439;-82
2021/03/16 02:56:56;;;;;;;2.53;2.07;;;;;;;3.20;97.33;152186.97;5033970;28;20470;-81
2021/03/16 02:59:51;;;;;;;3.20;2.90;;;;;;;3.12;97.51;152166.38;5033127;28;20970;-81
2021/03/16 03:02:45;;;;;;;3.37;2.40;;;;;;;3.10;100.00;152161.19;5024632;28;20445;-82
2021/03/16 03:05:42;;;;;;;4.30;2.73;;;;;;;3.02;100.00;152140.59;5023749;28;20837;-81
2021/03/16 03:08:37;;;;;;;4.40;3.03;;;;;;;3.01;100.00;152138.06;5034962;28;20471;-81
2021/03/16 03:11:32;;;;;;;5.43;3.57;;;;;;;2.99;98.50;152132.91;5032959;28;20473;-81
2021/03/16 03:14:26;;;;;;;4.47;2.90;;;;;;;2.99;98.61;152134.16;5038665;28;20440;-81
2021/03/16 03:17:20;;;;;;;4.43;2.93;;;;;;;2.97;99.28;152129.03;5038745;28;20448;-81
2021/03/16 03:20:15;;;;;;;7.23;3.07;;;;;;;3.06;99.20;152152.22;5040561;28;20443;-81
2021/03/16 03:23:12;;;;;;;6.77;3.10;;;;;;;3.04;97.91;152147.03;5033486;28;20441;-81
2021/03/16 03:26:10;;;;;;;4.13;2.83;;;;;;;3.01;99.51;152138.06;5038179;28;20510;-81
2021/03/16 03:29:07;;;;;;;3.37;2.67;;;;;;;3.01;99.90;152139.34;5037810;28;20454;-81
2021/03/16 03:32:03;;;;;;;3.77;2.40;;;;;;;3.00;99.95;152135.47;5018968;28;20462;-81
2021/03/16 03:34:59;;;;;;;4.27;2.93;;;;;;;2.98;99.52;152130.31;5021228;28;20449;-82
2021/03/16 03:37:53;;;;;;;5.53;3.23;;;;;;;2.95;99.72;152123.91;5038132;28;20435;-81
2021/03/16 03:40:50;;;;;;;3.47;2.30;;;;;;;2.98;99.73;152130.31;5032726;28;20443;-82
2021/03/16 03:43:44;;;;;;;5.20;2.38;;;;;;;2.96;98.80;152126.50;5023907;28;20443;-82
2021/03/16 03:46:39;;;;;;;6.43;2.03;;;;;;;2.98;100.00;152130.31;5034725;28;20222;-82
2021/03/16 03:49:34;;;;;;;3.67;2.40;;;;;;;2.94;100.00;152120.00;5037778;28;20480;-82
2021/03/16 03:52:29;;;;;;;4.70;2.43;;;;;;;2.94;99.62;152121.31;5037863;28;20550;-82
2021/03/16 03:55:23;;;;;;;2.77;1.90;;;;;;;2.93;98.43;152117.47;5038069;28;20447;-82
2021/03/16 03:58:19;;;;;;;4.00;1.90;;;;;;;2.95;97.89;152122.59;5036544;28;20432;-82
2021/03/16 04:01:14;;;;;;;5.23;2.53;;;;;;;2.89;98.51;152107.16;5030321;28;20206;-82
2021/03/16 04:04:08;;;;;;;4.60;2.00;;;;;;;2.89;98.92;152108.44;5017824;28;20441;-82
2021/03/16 04:07:03;;;;;;;3.40;2.20;;;;;;;2.89;99.50;152107.16;5034401;28;20432;-82
2021/03/16 04:09:57;;;;;;;3.60;2.47;;;;;;;2.90;96.86;152109.75;5020336;28;20455;-81
2021/03/16 04:12:53;;;;;;;4.13;2.13;;;;;;;2.90;95.41;152109.75;5037546;28;20564;-82
2021/03/16 04:15:48;;;;;;;6.13;2.67;;;;;;;2.92;95.89;152114.88;5035462;28;20912;-82
2021/03/16 04:18:43;;;;;;;3.90;2.77;;;;;;;2.88;96.90;152105.91;5018189;28;20455;-81
2021/03/16 04:21:37;;;;;;;4.40;2.30;;;;;;;2.85;95.62;152096.88;5036976;28;20426;-82
2021/03/16 04:24:33;;;;;;;3.27;2.00;;;;;;;2.81;97.64;152086.56;5018118;28;20444;-82
2021/03/16 04:27:27;;;;;;;3.10;1.98;;;;;;;2.83;97.58;152091.75;5017618;28;20445;-82
2021/03/16 04:30:22;;;;;;;3.20;1.80;;;;;;;2.82;96.65;152090.44;5036912;28;20648;-81
2021/03/16 04:33:17;;;;;;;2.80;2.17;;;;;;;2.80;97.83;152085.31;5036966;28;20466;-82
2021/03/16 04:36:11;;;;;;;4.07;2.27;;;;;;;2.82;99.30;152089.16;5033610;28;20539;-82
2021/03/16 04:39:05;;;;;;;3.57;1.80;;;;;;;2.81;99.74;152086.56;5026235;28;20487;-82
2021/03/16 04:41:59;;;;;;;5.30;2.07;;;;;;;2.80;99.91;152085.31;5036619;28;20922;-82
2021/03/16 04:44:53;;;;;;;4.77;2.20;;;;;;;2.81;99.77;152086.56;5027128;28;20843;-82
2021/03/16 04:47:48;;;;;;;5.00;2.57;;;;;;;2.78;99.65;152078.88;5036867;28;20842;-82
2021/03/16 04:50:43;;;;;;;3.10;1.80;;;;;;;2.78;98.44;152078.88;5036841;28;20447;-82
2021/03/16 04:53:37;;;;;;;2.70;2.20;;;;;;;2.75;97.39;152072.47;5036041;28;20429;-82
2021/03/16 04:56:31;;;;;;;3.23;2.00;;;;;;;2.76;98.15;152075.00;5032152;28;20533;-82
2021/03/16 04:59:25;;;;;;;4.57;1.70;;;;;;;2.78;97.89;152080.13;5058005;23;20478;-91
2021/03/16 05:02:19;;;;;;;4.33;1.87;;;;;;;2.73;99.03;152065.97;5037452;28;20786;-90
2021/03/16 05:05:15;;;;;;;4.80;1.70;;;;;;;2.74;96.88;152068.56;5044246;28;20449;-91
2021/03/16 05:08:10;;;;;;;11.23;2.43;;;;;;;2.72;97.75;152063.44;5057434;28;20614;-91
2021/03/16 05:11:04;;;;;;;5.35;1.63;;;;;;;2.69;97.49;152055.72;5057428;28;20440;-90
2021/03/16 05:13:58;;;;;;;3.40;1.97;;;;;;;2.71;96.46;152060.84;5057510;28;20194;-90
2021/03/16 05:16:52;;;;;;;2.20;1.73;;;;;;;2.70;98.05;152058.31;5057279;28;20456;-90
2021/03/16 05:19:46;;;;;;;5.25;1.80;;;;;;;2.64;97.07;152042.84;5055275;28;20923;-93
2021/03/16 05:22:40;;;;;;;4.10;2.20;;;;;;;2.68;97.31;152054.41;5057156;28;20194;-92
2021/03/16 05:25:35;;;;;;;2.87;2.10;;;;;;;2.70;98.69;152058.31;5056831;28;20490;-92
2021/03/16 05:28:30;;;;;;;3.13;1.70;;;;;;;2.67;97.24;152050.56;5056650;28;20448;-94
2021/03/16 05:31:24;;;;;;;2.73;1.70;;;;;;;2.69;97.77;152057.00;5057087;28;20430;-93
2021/03/16 05:34:18;;;;;;;4.53;2.20;;;;;;;2.74;97.58;152068.56;5056673;28;20435;-93
2021/03/16 05:37:12;;;;;;;4.00;2.30;;;;;;;2.73;98.82;152065.97;5056938;28;20430;-94
2021/03/16 05:40:07;;;;;;;5.93;2.13;;;;;;;2.73;98.94;152065.97;5057208;28;20437;-93
2021/03/16 05:43:03;;;;;;;3.93;1.67;;;;;;;2.77;98.71;152077.59;5057419;28;20457;-94
2021/03/16 05:45:57;;;;;;;2.80;2.17;;;;;;;2.76;99.39;152073.72;5057173;28;20438;-94
2021/03/16 05:49:06;;;;;;;3.77;2.40;;;;;;;2.76;98.60;152073.72;5056828;28;20480;-93
2021/03/16 05:52:11;;;;;;;5.13;2.17;;;;;;;2.75;97.36;152072.47;5057104;28;20823;-94
2021/03/16 05:55:07;;;;;;;3.87;1.87;;;;;;;2.75;96.41;152072.47;5057343;28;20776;-95
2021/03/16 05:58:02;;;;;;;3.03;2.00;;;;;;;2.77;97.51;152077.59;5057288;28;20465;-94
2021/03/16 06:00:56;;;;;;;4.20;2.13;;;;;;;2.82;96.87;152090.44;5072026;28;20423;-94
2021/03/16 06:03:50;;;;;;;4.03;2.40;;;;;;;2.81;97.75;152086.56;5078388;28;20426;-94
2021/03/16 06:06:45;;;;;;;4.97;1.40;;;;;;;2.80;95.97;152084.03;5070033;28;20441;-92
2021/03/16 06:09:39;;;;;;;4.20;1.90;;;;;;;2.83;96.10;152091.75;5056668;28;20434;-91
2021/03/16 06:12:34;;;;;;;3.33;1.77;;;;;;;2.81;93.89;152087.84;5056352;28;20453;-92
2021/03/16 06:15:30;;;;;;;3.83;2.10;;;;;;;2.87;96.04;152102.00;5051302;28;20449;-92
2021/03/16 06:18:26;;;;;;;3.03;2.10;;;;;;;2.83;95.57;152091.75;5056099;28;20442;-92
2021/03/16 06:21:22;;;;;;;2.80;1.73;;;;;;;2.85;95.87;152096.88;5056234;28;20456;-93
2021/03/16 06:24:16;;;;;;;3.63;2.37;;;;;;;2.85;96.07;152096.88;5056854;28;20451;-92
2021/03/16 06:27:24;;;;;;;4.87;2.30;;;;;;;2.86;96.78;152100.72;5049269;28;20845;-91
2021/03/16 06:30:25;;;;;;;3.47;2.30;;;;;;;2.89;96.62;152107.16;5053237;28;20483;-92
2021/03/16 06:33:21;;;;;;;6.35;3.03;;;;;;;2.88;95.42;152105.91;5066209;28;20477;-95
2021/03/16 06:36:15;;;;;;;3.97;2.80;;;;;;;2.92;95.69;152116.16;5056529;28;20189;-94
2021/03/16 06:39:17;;;;;;;3.73;2.40;;;;;;;2.92;95.57;152116.16;5056018;28;20453;-90
2021/03/16 06:42:22;;;;;;;4.60;2.57;;;;;;;2.91;97.69;152112.34;5052617;28;20518;-91
2021/03/16 06:45:17;;;;;;;3.27;2.63;;;;;;;2.93;96.05;152117.47;5053383;28;20430;-91
2021/03/16 06:48:15;;;;;;;2.30;2.00;;;;;;;2.98;96.70;152131.63;5068320;28;20432;-92
2021/03/16 06:51:12;;;;;;;7.23;3.13;;;;;;;2.95;95.96;152123.91;5064553;28;20423;-91
2021/03/16 06:54:11;;;;;;;2.77;2.43;;;;;;;2.96;97.34;152125.19;5043520;28;20439;-91
2021/03/16 06:57:06;;;;;;;3.40;2.33;;;;;;;3.03;99.81;152143.19;5063146;28;20490;-91
2021/03/16 07:00:08;;;;;;;7.17;2.93;;;;;;;3.02;96.87;152141.91;5068871;28;20483;-92
2021/03/16 07:03:12;;;;;;;6.80;2.50;;;;;;;3.07;96.96;152153.50;5076595;28;20520;-91
2021/03/16 07:06:11;;;;;;;4.27;2.97;;;;;;;3.07;96.55;152153.50;5076470;28;20445;-82
2021/03/16 07:09:06;;;;;;;5.77;3.07;;;;;;;3.06;96.78;152150.91;5074788;28;20461;-82
2021/03/16 07:12:01;;;;;;;2.40;2.20;;;;;;;3.07;97.79;152153.50;5058700;28;20473;-82
2021/03/16 07:14:55;;;;;;;4.77;2.47;;;;;;;3.10;98.14;152159.94;5058304;28;20439;-82
2021/03/16 07:17:50;;;;;;;4.33;2.20;;;;;;;3.04;98.28;152145.78;5057810;28;20443;-82
2021/03/16 07:20:47;;;;;;;4.70;2.73;;;;;;;3.01;99.98;152138.06;5057668;28;20862;-82
2021/03/16 07:23:45;;;;;;;4.90;2.53;;;;;;;2.99;100.00;152134.16;5042982;28;20771;-83
2021/03/16 07:26:40;;;;;;;8.30;2.37;;;;;;;3.01;100.00;152138.06;5072934;28;20445;-83
2021/03/16 07:29:35;;;;;;;6.90;2.80;;;;;;;3.01;99.89;152138.06;5058485;28;20465;-82
2021/03/16 07:32:30;;;;;;;4.83;2.87;;;;;;;2.98;100.00;152130.31;5051866;28;20679;-83
2021/03/16 07:35:25;;;;;;;4.00;2.30;;;;;;;2.92;100.00;152114.88;5061090;28;20430;-83
2021/03/16 07:38:21;;;;;;;6.80;2.67;;;;;;;2.88;100.00;152104.59;5057377;28;20788;-83
2021/03/16 07:41:23;;;;;;;4.53;2.90;;;;;;;2.83;100.00;152091.75;5063454;28;20812;-84
2021/03/16 07:44:19;;;;;;;6.63;2.60;;;;;;;2.81;100.00;152086.56;5067524;28;20442;-83
2021/03/16 07:47:13;;;;;;;4.00;2.87;;;;;;;2.82;100.00;152089.16;5054491;28;20445;-83
2021/03/16 07:50:09;;;;;;;7.07;3.63;;;;;;;2.82;100.00;152089.16;5050339;28;20523;-91
2021/03/16 07:53:04;;;;;;;4.70;2.93;;;;;;;2.83;100.00;152093.00;5058873;28;20473;-91
2021/03/16 07:56:05;;;;;;;3.63;2.77;;;;;;;2.96;100.00;152126.50;5058749;28;20434;-90
2021/03/16 07:59:05;;;;;;;3.70;2.40;;;;;;;3.17;100.00;152179.22;5057834;28;20536;-91
2021/03/16 08:02:07;;;;;;;7.57;2.60;;;;;;;3.45;100.00;152251.28;5059009;28;20431;-91
2021/03/16 08:05:28;;;;;;;;;;;;;;;;;;;;;
2021/03/16 08:08:27;;;;;;;4.13;2.73;;;;;;;3.75;100.00;152325.94;5058604;28;20513;-93
2021/03/16 08:11:39;;;;;;;5.57;3.10;;;;;;;3.89;99.67;152362.00;5058211;28;20455;-91
2021/03/16 08:14:34;;;;;;;3.90;3.13;;;;;;;3.94;99.91;152374.88;5055308;28;20441;-92
2021/03/16 08:17:29;;;;;;;4.83;2.83;;;;;;;4.03;97.21;152398.03;5055134;28;20454;-91
2021/03/16 08:20:25;;;;;;;3.87;2.50;;;;;;;4.11;96.25;152418.66;5071758;28;20454;-92
2021/03/16 08:23:20;;;;;;;4.83;3.30;;;;;;;4.12;95.41;152422.53;5048491;28;20453;-91
2021/03/16 08:26:16;;;;;;;3.03;2.30;;;;;;;4.10;96.72;152417.34;5066018;28;20772;-91
2021/03/16 08:29:10;;;;;;;4.30;3.30;;;;;;;4.02;95.37;152395.50;5041363;28;20535;-90
2021/03/16 08:32:06;;;;;;;4.97;2.87;;;;;;;4.06;95.70;152405.78;5070736;28;20799;-91
2021/03/16 08:35:00;;;;;;;4.03;2.55;;;;;;;4.00;93.60;152390.31;5064167;28;20451;-91
2021/03/16 08:37:54;;;;;;;4.90;2.80;;;;;;;4.02;93.62;152395.50;5057469;28;20206;-91
2021/03/16 08:40:49;;;;;;;5.03;2.77;;;;;;;3.98;94.46;152385.16;5057666;28;21189;-91
2021/03/16 08:43:48;;;;;;;4.90;2.50;;;;;;;4.00;96.45;152390.31;5062211;28;20455;-92
2021/03/16 08:46:42;;;;;;;6.10;3.20;;;;;;;3.97;94.62;152383.88;5065401;28;20445;-92
2021/03/16 08:49:39;;;;;;;3.47;2.83;;;;;;;4.00;94.47;152390.31;5057458;28;20458;-92
2021/03/16 08:52:36;;;;;;;7.10;4.03;;;;;;;4.04;96.93;152401.94;5055052;28;20465;-92
2021/03/16 08:55:33;;;;;;;6.00;3.57;;;;;;;4.13;95.78;152423.84;5038083;28;20434;-93
2021/03/16 08:58:28;;;;;;;7.30;3.30;;;;;;;4.11;95.89;152419.94;5037810;28;20472;-94
2021/03/16 09:01:27;;;;;;;4.87;3.27;;;;;;;4.18;95.97;152436.72;5039459;28;20452;-92
2021/03/16 09:04:21;;;;;;;5.80;3.40;;;;;;;4.31;96.56;152470.19;5105092;28;20517;-90
2021/03/16 09:07:23;;;;;;;5.20;3.27;;;;;;;4.40;94.56;152493.34;5099547;28;20436;-92
2021/03/16 09:10:20;;;;;;;10.85;3.70;;;;;;;4.44;93.02;152503.69;5087895;28;20456;-91
2021/03/16 09:13:24;;;;;;;6.00;2.90;;;;;;;4.48;94.75;152513.97;5058290;28;20686;-92
2021/03/16 09:16:22;;;;;;;8.60;4.50;;;;;;;4.36;94.37;152481.78;5057307;28;20519;-92
2021/03/16 09:19:17;;;;;;;4.80;3.43;;;;;;;4.36;95.29;152483.06;5057122;28;20433;-93
2021/03/16 09:22:15;;;;;;;3.70;3.37;;;;;;;4.31;93.47;152470.19;5057514;28;20433;-92
2021/03/16 09:25:13;;;;;;;3.90;3.50;;;;;;;4.30;96.16;152468.91;5056278;28;20449;-91
2021/03/16 09:28:10;;;;;;;7.83;3.70;;;;;;;4.31;95.76;152470.19;5056448;28;20781;-92
2021/03/16 09:31:04;;;;;;;4.57;3.60;;;;;;;4.21;95.57;152444.41;5057124;28;20847;-92
2021/03/16 09:33:59;;;;;;;5.33;3.53;;;;;;;4.09;97.78;152413.50;5057408;28;20440;-93
2021/03/16 09:37:00;;;;;;;5.17;3.90;;;;;;;4.00;96.90;152390.31;5056343;28;20524;-91
2021/03/16 09:39:53;;;;;;;6.40;3.40;;;;;;;3.97;99.27;152383.88;5056470;28;20453;-92
2021/03/16 09:42:37;;;;;;;5.83;4.30;;;;;;;3.98;98.72;152385.16;5021110;28;20434;-93
2021/03/16 09:45:19;;;;;;;5.00;3.38;;;;;;;4.00;100.00;152390.31;5021354;28;20478;-91
2021/03/16 09:47:55;;;;;;;10.35;4.47;;;;;;;4.03;100.00;152399.34;5030839;28;20200;-92
2021/03/16 09:50:34;;;;;;;4.90;3.73;;;;;;;4.07;100.00;152408.38;5055995;28;20215;-91
2021/03/16 09:53:15;;;;;;;6.40;3.50;;;;;;;4.04;100.00;152400.63;5041094;28;20797;-92
2021/03/16 09:55:56;;;;;;;3.93;3.43;;;;;;;4.11;100.00;152419.94;5041647;28;20927;-92
2021/03/16 09:58:33;;;;;;;5.53;3.53;;;;;;;4.08;100.00;152412.22;5040838;28;20515;-91
2021/03/16 10:01:08;;;;;;;7.00;4.27;;;;;;;4.20;100.00;152441.84;5045234;28;20816;-92
2021/03/16 10:03:54;;;;;;;4.43;3.80;;;;;;;4.17;100.00;152435.41;5037707;28;20438;-92
2021/03/16 10:06:34;;;;;;;7.00;3.60;;;;;;;4.13;100.00;152423.84;5052968;28;20447;-91
2021/03/16 10:09:16;;;;;;;4.13;3.73;;;;;;;4.11;100.00;152418.66;5057483;28;20535;-92
2021/03/16 10:11:53;;;;;;;8.02;3.75;;;;;;;4.19;100.00;152439.25;5039218;28;20437;-91
2021/03/16 10:14:31;;;;;;;8.40;4.50;;;;;;;4.14;100.00;152426.38;5038144;28;20203;-92
2021/03/16 10:17:06;;;;;;;8.63;4.60;;;;;;;4.11;100.00;152419.94;5017900;28;20431;-91
2021/03/16 10:19:42;;;;;;;6.63;3.90;;;;;;;4.16;100.00;152431.53;5020327;28;20523;-92
2021/03/16 10:22:18;;;;;;;7.53;3.57;;;;;;;4.23;100.00;152449.59;5043561;28;20427;-92
2021/03/16 10:25:01;;;;;;;6.13;4.60;;;;;;;4.32;100.00;152472.75;5059446;28;20449;-91
2021/03/16 10:27:37;;;;;;;6.27;4.70;;;;;;;4.35;100.00;152480.47;5041259;28;20436;-91
2021/03/16 10:30:14;;;;;;;6.40;4.70;;;;;;;4.43;100.00;152501.09;5046285;28;20452;-92
2021/03/16 10:32:49;;;;;;;7.67;5.17;;;;;;;4.55;100.00;152532.03;5061700;28;20461;-92
2021/03/16 10:35:24;;;;;;;16.08;4.45;;;;;;;4.72;100.00;152575.81;5055004;28;20506;-92
2021/03/16 10:37:59;;;;;;;8.10;4.10;;;;;;;4.82;100.00;152601.56;5031810;28;20346;-91
2021/03/16 10:40:36;;;;;;;7.67;4.90;;;;;;;4.93;100.00;152628.63;5037967;28;20432;-91
2021/03/16 10:43:12;;;;;;;6.10;4.30;;;;;;;5.04;100.00;152655.69;5076494;28;20472;-92
2021/03/16 10:45:48;;;;;;;5.40;4.20;;;;;;;5.02;98.12;152650.56;5050810;28;20511;-92
2021/03/16 10:48:24;;;;;;;8.30;4.20;;;;;;;5.08;98.46;152667.34;5043918;28;20448;-91
2021/03/16 10:50:59;;;;;;;6.17;4.33;;;;;;;5.19;97.32;152694.41;5052542;28;20515;-93
2021/03/16 10:53:34;;;;;;;9.23;4.17;;;;;;;5.06;95.62;152660.84;5044126;28;20492;-92
2021/03/16 10:56:09;;;;;;;6.93;4.43;;;;;;;5.09;92.01;152669.88;5032193;28;20809;-92
2021/03/16 10:58:45;;;;;;;10.47;4.07;;;;;;;5.10;92.00;152671.19;5043975;28;20975;-92
2021/03/16 11:01:21;;;;;;;6.83;4.70;;;;;;;5.20;95.74;152696.94;5044516;28;20447;-91
2021/03/16 11:03:57;;;;;;;5.80;3.50;;;;;;;5.14;90.53;152681.47;5044381;28;20443;-92
2021/03/16 11:06:32;;;;;;;3.77;3.37;;;;;;;5.08;89.06;152667.34;5044033;28;20208;-91
2021/03/16 11:09:07;;;;;;;4.47;3.63;;;;;;;5.11;89.96;152673.78;5044136;28;20449;-91
2021/03/16 11:11:43;;;;;;;6.63;4.20;;;;;;;5.07;88.99;152663.44;5074802;28;20429;-92
2021/03/16 11:14:19;;;;;;;5.00;3.70;;;;;;;5.12;88.22;152676.31;5044383;28;20440;-92
2021/03/16 11:16:55;;;;;;;6.73;3.87;;;;;;;5.10;87.27;152671.19;5043844;28;20468;-91
2021/03/16 11:19:30;;;;;;;7.87;4.20;;;;;;;5.17;88.57;152689.22;5044020;28;20887;-91
2021/03/16 11:22:06;;;;;;;6.17;3.57;;;;;;;5.17;88.28;152689.22;5024389;28;20442;-92
2021/03/16 11:24:41;;;;;;;5.73;4.00;;;;;;;5.30;90.17;152724.03;5024483;28;20528;-92
2021/03/16 11:27:17;;;;;;;8.93;3.83;;;;;;;5.39;92.34;152745.94;5041937;28;20454;-92
2021/03/16 11:29:53;;;;;;;6.00;3.60;;;;;;;5.29;89.96;152720.19;5024155;28;20936;-92
2021/03/16 11:32:29;;;;;;;12.77;3.80;;;;;;;5.33;91.40;152730.47;5072240;28;20480;-92
2021/03/16 11:35:23;;;;;;;4.38;3.35;;;;;;;5.35;90.80;152735.63;5079453;28;20433;-91
2021/03/16 11:38:18;;;;;;;4.90;3.63;;;;;;;5.35;89.16;152735.63;5056170;28;20534;-92
2021/03/16 11:41:13;;;;;;;4.90;3.00;;;;;;;5.35;89.25;152735.63;5052408;28;20430;-93
2021/03/16 11:44:07;;;;;;;8.63;3.43;;;;;;;5.33;89.18;152731.78;5059326;28;20537;-94
2021/03/16 11:47:01;;;;;;;8.37;3.60;;;;;;;5.31;87.00;152725.31;5059382;28;20521;-93
2021/03/16 11:49:56;;;;;;;4.97;3.20;;;;;;;5.25;86.39;152709.84;5074600;28;20449;-92
2021/03/16 11:52:50;;;;;;;5.60;3.97;;;;;;;5.10;89.41;152671.19;5081508;28;20466;-92
2021/03/16 11:55:45;;;;;;;6.80;3.73;;;;;;;5.12;88.24;152677.63;5083569;28;20430;-91
2021/03/16 11:58:39;;;;;;;6.97;3.85;;;;;;;5.01;89.59;152647.97;5065794;28;20533;-91
2021/03/16 12:01:33;;;;;;;6.00;3.17;;;;;;;4.92;92.11;152626.09;5059026;28;20202;-92
2021/03/16 12:04:27;;;;;;;7.53;3.33;;;;;;;4.81;89.25;152599.03;5054955;28;20801;-91
2021/03/16 12:07:22;;;;;;;4.53;2.60;;;;;;;4.87;91.87;152614.47;5034898;28;20438;-91
2021/03/16 12:10:16;;;;;;;5.30;3.43;;;;;;;4.95;92.48;152633.78;5046083;28;20484;-92
2021/03/16 12:13:10;;;;;;;6.07;3.43;;;;;;;5.01;89.83;152647.97;5062173;28;20565;-93
2021/03/16 12:16:05;;;;;;;4.83;3.07;;;;;;;5.06;90.26;152662.16;5054505;28;20787;-92
2021/03/16 12:18:59;;;;;;;3.80;2.50;;;;;;;5.13;88.21;152678.94;5054717;28;20432;-91
2021/03/16 12:21:53;;;;;;;8.90;4.33;;;;;;;5.24;86.03;152707.28;5051668;28;20450;-92
2021/03/16 12:24:49;;;;;;;5.17;3.17;;;;;;;5.31;85.97;152725.31;5055647;28;20506;-92
2021/03/16 12:27:44;;;;;;;5.07;3.17;;;;;;;5.31;83.50;152725.31;5035205;28;20431;-92
2021/03/16 12:30:39;;;;;;;4.13;2.53;;;;;;;5.46;83.17;152764.00;5054423;28;20446;-91
2021/03/16 12:33:33;;;;;;;5.70;3.30;;;;;;;5.56;83.17;152789.75;5037853;28;20568;-91
2021/03/16 12:36:27;;;;;;;5.30;2.30;;;;;;;5.60;80.56;152800.09;5054656;28;20450;-92
2021/03/16 12:39:22;;;;;;;5.87;2.83;;;;;;;5.70;80.70;152825.88;5049184;28;20478;-91
2021/03/16 12:42:17;;;;;;;7.80;3.03;;;;;;;5.78;81.63;152846.53;5037857;28;20793;-91
2021/03/16 12:45:12;;;;;;;4.20;3.20;;;;;;;6.01;83.74;152905.88;5057798;28;20764;-93
2021/03/16 12:48:06;;;;;;;4.10;3.00;;;;;;;6.04;86.28;152912.34;5034211;28;20523;-92
2021/03/16 12:51:02;;;;;;;6.03;3.33;;;;;;;5.95;76.36;152890.44;5034692;28;20455;-91
2021/03/16 12:53:57;;;;;;;8.40;3.73;;;;;;;5.98;79.59;152896.91;5051678;28;20865;-93
2021/03/16 12:56:51;;;;;;;4.43;2.77;;;;;;;5.87;72.87;152869.81;5052160;28;20455;-92
2021/03/16 12:59:46;;;;;;;5.93;2.20;;;;;;;5.84;72.35;152862.00;5033940;28;20968;-83
2021/03/16 13:02:41;;;;;;;7.10;2.50;;;;;;;5.77;77.17;152843.94;5039142;28;20931;-83
2021/03/16 13:05:35;;;;;;;3.20;2.13;;;;;;;5.71;74.14;152828.47;5039833;28;20453;-83
2021/03/16 13:08:29;;;;;;;3.50;1.90;;;;;;;5.67;76.53;152818.16;5041125;28;20540;-83
2021/03/16 13:11:23;;;;;;;5.83;3.17;;;;;;;5.74;70.85;152834.94;5039807;28;20783;-83
2021/03/16 13:14:18;;;;;;;4.50;3.13;;;;;;;5.77;72.38;152843.94;5044947;28;20429;-83
2021/03/16 13:17:13;;;;;;;3.47;2.37;;;;;;;5.71;73.89;152828.47;5046307;28;20433;-83
2021/03/16 13:20:09;;;;;;;4.17;3.00;;;;;;;5.66;68.08;152815.59;5034612;28;20775;-82